createdAt,value
2019-05-21T00:02:08.861Z,86467.91
2019-05-21T00:04:35.618Z,86466.23
2019-05-21T00:07:02.525Z,86468.48
2019-05-21T00:09:29.326Z,86469.99
2019-05-21T00:11:56.097Z,86475.78
2019-05-21T00:14:23.003Z,86480.10
2019-05-21T00:16:49.747Z,86479.92
2019-05-21T00:19:16.494Z,86483.67
2019-05-21T00:21:43.284Z,86484.24
2019-05-21T00:24:10.036Z,86490.05
2019-05-21T00:26:36.803Z,86484.42
2019-05-21T00:29:59.320Z,86483.66
2019-05-21T00:33:22.147Z,86482.16
2019-05-21T00:36:44.694Z,86482.37
2019-05-21T00:40:07.160Z,86484.81
2019-05-21T00:42:39.381Z,86487.06
2019-05-21T00:45:09.514Z,86480.52
2019-05-21T00:47:36.238Z,86484.45
2019-05-21T00:50:06.360Z,86481.05
2019-05-21T00:52:33.086Z,86470.58
2019-05-21T00:54:59.853Z,86471.70
2019-05-21T00:57:26.650Z,86468.50
2019-05-21T00:59:53.455Z,86469.45
2019-05-21T01:02:20.147Z,86470.17
2019-05-21T01:04:59.476Z,86467.20
2019-05-21T01:07:15.507Z,86467.75
2019-05-21T01:09:42.243Z,86466.05
2019-05-21T01:12:09.177Z,86462.70
2019-05-21T01:14:35.891Z,86462.88
2019-05-21T01:17:02.631Z,86460.81
2019-05-21T01:19:29.548Z,86463.08
2019-05-21T01:21:56.261Z,86464.19
2019-05-21T01:24:23.002Z,86461.95
2019-05-21T01:26:49.787Z,86462.89
2019-05-21T01:29:16.545Z,86464.19
2019-05-21T01:31:43.269Z,86462.88
2019-05-21T01:34:11.549Z,86466.64
2019-05-21T01:36:38.680Z,86464.95
2019-05-21T01:39:05.651Z,86464.56
2019-05-21T01:41:32.493Z,86464.19
2019-05-21T01:43:59.291Z,86464.02
2019-05-21T01:46:26.041Z,86461.20
2019-05-21T01:48:52.822Z,86467.75
2019-05-21T01:51:19.549Z,86470.20
2019-05-21T01:53:46.351Z,86468.70
2019-05-21T01:56:13.285Z,86473.57
2019-05-21T01:58:40.106Z,86468.50
2019-05-21T02:01:06.844Z,86458.20
2019-05-21T02:03:33.633Z,86464.77
2019-05-21T02:06:00.372Z,86459.53
2019-05-21T02:08:27.171Z,86458.58
2019-05-21T02:10:54.085Z,86460.45
2019-05-21T02:13:20.972Z,86462.89
2019-05-21T02:15:47.782Z,86457.82
2019-05-21T02:18:14.554Z,86458.77
2019-05-21T02:20:41.298Z,86462.70
2019-05-21T02:23:08.085Z,86460.83
2019-05-21T02:25:34.825Z,86460.09
2019-05-21T02:28:01.680Z,86458.58
2019-05-21T02:30:28.416Z,86460.64
2019-05-21T02:32:55.214Z,86462.71
2019-05-21T02:35:21.961Z,86460.45
2019-05-21T02:37:48.694Z,86464.59
2019-05-21T02:40:16.372Z,86473.00
2019-05-21T02:42:43.116Z,86468.89
2019-05-21T02:45:10.835Z,86474.70
2019-05-21T02:47:37.590Z,86482.01
2019-05-21T02:50:06.790Z,86478.08
2019-05-21T02:52:33.521Z,86485.55
2019-05-21T02:55:00.409Z,86477.13
2019-05-21T02:57:27.160Z,86478.63
2019-05-21T02:59:53.966Z,86478.25
2019-05-21T03:02:20.727Z,86474.70
2019-05-21T03:04:47.545Z,86477.88
2019-05-21T03:07:14.292Z,86478.63
2019-05-21T03:09:41.081Z,86474.51
2019-05-21T03:12:07.928Z,86478.83
2019-05-21T03:14:34.681Z,86473.58
2019-05-21T03:17:01.399Z,86478.44
2019-05-21T03:19:28.201Z,86477.50
2019-05-21T03:21:54.988Z,86477.12
2019-05-21T03:24:21.776Z,86470.95
2019-05-21T03:26:48.509Z,86477.70
2019-05-21T03:29:15.307Z,86480.13
2019-05-21T03:31:42.037Z,86489.69
2019-05-21T03:34:08.836Z,86489.67
2019-05-21T03:36:35.563Z,86490.25
2019-05-21T03:39:02.464Z,86491.17
2019-05-21T03:41:29.203Z,86488.56
2019-05-21T03:43:56.041Z,86494.35
2019-05-21T03:46:22.755Z,86492.30
2019-05-21T03:48:49.584Z,86495.30
2019-05-21T03:51:17.190Z,86495.47
2019-05-21T03:53:43.997Z,86496.06
2019-05-21T03:56:10.734Z,86499.99
2019-05-21T03:58:37.521Z,86499.23
2019-05-21T04:01:04.255Z,86500.36
2019-05-21T04:03:31.009Z,86502.03
2019-05-21T04:05:57.800Z,86503.17
2019-05-21T04:08:24.529Z,86503.34
2019-05-21T04:10:51.332Z,86506.17
2019-05-21T04:13:18.120Z,86515.14
2019-05-21T04:15:44.888Z,86510.28
2019-05-21T04:18:11.684Z,86511.80
2019-05-21T04:20:38.429Z,86516.47
2019-05-21T04:23:05.176Z,86517.23
2019-05-21T04:25:31.966Z,86516.10
2019-05-21T04:27:58.720Z,86522.66
2019-05-21T04:30:25.515Z,86518.16
2019-05-21T04:32:52.259Z,86518.53
2019-05-21T04:35:19.064Z,86519.48
2019-05-21T04:37:45.823Z,86522.28
2019-05-21T04:40:12.942Z,86523.95
2019-05-21T04:42:39.691Z,86523.23
2019-05-21T04:45:07.003Z,86517.03
2019-05-21T04:47:33.758Z,86518.91
2019-05-21T04:50:00.562Z,86524.34
2019-05-21T04:52:27.341Z,86521.34
2019-05-21T04:54:54.144Z,86523.97
2019-05-21T04:57:20.895Z,86519.65
2019-05-21T04:59:47.697Z,86526.59
2019-05-21T05:02:14.442Z,86528.83
2019-05-21T05:04:41.270Z,86536.15
2019-05-21T05:07:08.015Z,86530.33
2019-05-21T05:09:34.817Z,86534.06
2019-05-21T05:12:01.577Z,86538.02
2019-05-21T05:14:28.374Z,86532.58
2019-05-21T05:16:55.099Z,86530.52
2019-05-21T05:19:21.893Z,86536.52
2019-05-21T05:21:48.624Z,86525.86
2019-05-21T05:24:15.352Z,86536.55
2019-05-21T05:26:42.149Z,86526.97
2019-05-21T05:29:08.893Z,86528.66
2019-05-21T05:31:35.699Z,86529.21
2019-05-21T05:34:02.595Z,86535.04
2019-05-21T05:36:29.689Z,86532.59
2019-05-21T05:38:56.452Z,86536.12
2019-05-21T05:41:23.188Z,86538.20
2019-05-21T05:43:50.066Z,86538.39
2019-05-21T05:46:16.838Z,86542.12
2019-05-21T05:48:43.598Z,86539.30
2019-05-21T05:51:10.377Z,86546.63
2019-05-21T05:53:37.121Z,86536.27
2019-05-21T05:56:03.881Z,86539.45
2019-05-21T05:58:30.761Z,86545.25
2019-05-21T06:00:57.495Z,86541.31
2019-05-21T06:03:24.268Z,86547.09
2019-05-21T06:05:51.068Z,86546.34
2019-05-21T06:08:17.799Z,86545.00
2019-05-21T06:10:44.536Z,86549.70
2019-05-21T06:13:11.483Z,86544.59
2019-05-21T06:15:38.185Z,86552.66
2019-05-21T06:18:04.930Z,86550.56
2019-05-21T06:20:31.750Z,86545.86
2019-05-21T06:22:58.484Z,86556.55
2019-05-21T06:25:25.644Z,86551.27
2019-05-21T06:27:52.468Z,86550.84
2019-05-21T06:30:19.220Z,86560.02
2019-05-21T06:32:46.011Z,86557.74
2019-05-21T06:35:13.388Z,86558.83
2019-05-21T06:37:40.143Z,86556.76
2019-05-21T06:40:07.377Z,86552.58
2019-05-21T06:42:34.194Z,86561.39
2019-05-21T06:45:01.090Z,86555.73
2019-05-21T06:47:27.878Z,86561.72
2019-05-21T06:49:54.704Z,86569.05
2019-05-21T06:52:21.434Z,86563.75
2019-05-21T06:54:48.170Z,86563.75
2019-05-21T06:57:14.975Z,86567.53
2019-05-21T06:59:41.723Z,86570.17
2019-05-21T07:02:08.494Z,86576.06
2019-05-21T07:04:35.501Z,86578.39
2019-05-21T07:07:02.334Z,86578.75
2019-05-21T07:09:29.076Z,86574.58
2019-05-21T07:11:55.978Z,86581.88
2019-05-21T07:14:22.731Z,86579.18
2019-05-21T07:16:49.465Z,86585.76
2019-05-21T07:19:16.388Z,86587.04
2019-05-21T07:21:43.118Z,86590.95
2019-05-21T07:24:09.884Z,86587.16
2019-05-21T07:26:36.773Z,86589.58
2019-05-21T07:29:03.550Z,86597.23
2019-05-21T07:31:30.284Z,86598.31
2019-05-21T07:33:57.179Z,86599.42
2019-05-21T07:36:23.941Z,86597.55
2019-05-21T07:38:53.794Z,86602.66
2019-05-21T07:41:20.387Z,86599.62
2019-05-21T07:43:47.371Z,86593.00
2019-05-21T07:46:14.145Z,86598.57
2019-05-21T07:48:40.950Z,86596.28
2019-05-21T07:51:07.704Z,86598.11
2019-05-21T07:53:34.460Z,86605.58
2019-05-21T07:56:01.266Z,86599.75
2019-05-21T07:58:28.010Z,86602.83
2019-05-21T08:00:54.748Z,86600.34
2019-05-21T08:03:21.643Z,86597.05
2019-05-21T08:05:48.392Z,86600.17
2019-05-21T08:08:15.137Z,86599.14
2019-05-21T08:10:41.930Z,86599.84
2019-05-21T08:13:08.693Z,86600.55
2019-05-21T08:15:35.418Z,86607.58
2019-05-21T08:18:02.228Z,86606.78
2019-05-21T08:20:29.067Z,86610.75
2019-05-21T08:22:55.803Z,86610.63
2019-05-21T08:25:22.687Z,86610.20
2019-05-21T08:27:49.946Z,86606.73
2019-05-21T08:30:17.417Z,86606.72
2019-05-21T08:32:44.299Z,86608.03
2019-05-21T08:35:13.503Z,86606.69
2019-05-21T08:37:40.207Z,86613.40
2019-05-21T08:40:08.293Z,86619.24
2019-05-21T08:42:35.333Z,86618.00
2019-05-21T08:45:04.431Z,86614.80
2019-05-21T08:47:31.454Z,86619.78
2019-05-21T08:49:58.215Z,86622.23
2019-05-21T08:52:24.959Z,86624.25
2019-05-21T08:54:55.571Z,86626.59
2019-05-21T08:57:21.305Z,86625.06
2019-05-21T08:59:48.126Z,86623.13
2019-05-21T09:02:15.608Z,86623.05
2019-05-21T09:04:46.329Z,86624.82
2019-05-21T09:07:11.114Z,86622.28
2019-05-21T09:09:49.082Z,86623.13
2019-05-21T09:12:06.751Z,86618.89
2019-05-21T09:14:33.489Z,86622.41
2019-05-21T09:17:01.681Z,86616.70
2019-05-21T09:19:28.403Z,86620.12
2019-05-21T09:21:55.249Z,86617.80
2019-05-21T09:24:22.143Z,86618.50
2019-05-21T09:26:48.893Z,86622.77
2019-05-21T09:29:15.644Z,86621.74
2019-05-21T09:31:42.435Z,86616.20
2019-05-21T09:34:09.149Z,86611.27
2019-05-21T09:36:35.882Z,86622.00
2019-05-21T09:39:05.866Z,86615.86
2019-05-21T09:41:32.613Z,86613.81
2019-05-21T09:43:59.394Z,86621.02
2019-05-21T09:46:26.200Z,86626.43
2019-05-21T09:48:56.021Z,86622.49
2019-05-21T09:51:21.506Z,86622.70
2019-05-21T09:53:48.428Z,86619.20
2019-05-21T09:56:15.195Z,86609.02
2019-05-21T09:58:41.956Z,86610.75
2019-05-21T10:01:08.745Z,86608.34
2019-05-21T10:03:35.805Z,86607.89
2019-05-21T10:06:02.530Z,86601.02
2019-05-21T10:08:29.320Z,86604.64
2019-05-21T10:10:56.100Z,86604.83
2019-05-21T10:13:22.819Z,86598.55
2019-05-21T10:15:49.641Z,86597.00
2019-05-21T10:18:16.364Z,86602.30
2019-05-21T10:20:43.083Z,86599.99
2019-05-21T10:23:09.983Z,86600.97
2019-05-21T10:25:36.851Z,86601.66
2019-05-21T10:28:03.682Z,86594.29
2019-05-21T10:30:30.630Z,86600.27
2019-05-21T10:32:57.317Z,86594.28
2019-05-21T10:35:24.082Z,86600.94
2019-05-21T10:37:54.929Z,86603.69
2019-05-21T10:40:19.640Z,86609.70
2019-05-21T10:42:46.390Z,86609.39
2019-05-21T10:45:13.438Z,86610.17
2019-05-21T10:47:40.152Z,86607.83
2019-05-21T10:50:07.037Z,86607.76
2019-05-21T10:52:34.009Z,86618.56
2019-05-21T10:55:00.748Z,86617.76
2019-05-21T10:57:27.527Z,86618.98
2019-05-21T10:59:54.758Z,86616.20
2019-05-21T11:02:24.670Z,86613.89
2019-05-21T11:04:51.719Z,86619.06
2019-05-21T11:07:18.512Z,86623.69
2019-05-21T11:09:45.276Z,86622.36
2019-05-21T11:12:11.994Z,86625.19
2019-05-21T11:14:38.896Z,86624.59
2019-05-21T11:17:05.735Z,86622.23
2019-05-21T11:19:33.211Z,86629.19
2019-05-21T11:22:00.077Z,86628.75
2019-05-21T11:24:26.809Z,86631.81
2019-05-21T11:26:53.562Z,86631.19
2019-05-21T11:29:20.470Z,86635.13
2019-05-21T11:31:56.388Z,86634.56
2019-05-21T11:34:15.786Z,86639.47
2019-05-21T11:36:42.607Z,86639.42
2019-05-21T11:39:09.462Z,86636.41
2019-05-21T11:41:36.188Z,86634.15
2019-05-21T11:44:03.518Z,86641.27
2019-05-21T11:46:30.310Z,86647.86
2019-05-21T11:48:57.064Z,86647.47
2019-05-21T11:51:23.847Z,86653.80
2019-05-21T11:53:50.593Z,86653.39
2019-05-21T11:56:17.327Z,86654.71
2019-05-21T11:58:44.451Z,86654.50
2019-05-21T12:01:11.190Z,86663.83
2019-05-21T12:03:37.924Z,86657.23
2019-05-21T12:06:04.730Z,86658.09
2019-05-21T12:08:31.476Z,86656.31
2019-05-21T12:10:58.212Z,86659.35
2019-05-21T12:13:25.146Z,86668.41
2019-05-21T12:15:51.883Z,86661.50
2019-05-21T12:18:18.645Z,86661.43
2019-05-21T12:20:45.564Z,86671.58
2019-05-21T12:23:12.310Z,86672.56
2019-05-21T12:25:39.076Z,86672.14
2019-05-21T12:28:05.893Z,86670.17
2019-05-21T12:30:32.623Z,86676.41
2019-05-21T12:32:59.405Z,86668.23
2019-05-21T12:35:26.304Z,86675.70
2019-05-21T12:38:12.778Z,86673.27
2019-05-21T12:40:39.596Z,86677.77
2019-05-21T12:43:06.313Z,86685.19
2019-05-21T12:45:33.057Z,86678.45
2019-05-21T12:47:59.913Z,86684.36
2019-05-21T12:50:26.638Z,86682.42
2019-05-21T12:52:53.393Z,86680.59
2019-05-21T12:55:20.337Z,86678.78
2019-05-21T12:57:47.030Z,86684.50
2019-05-21T13:00:14.495Z,86692.10
2019-05-21T13:02:41.308Z,86690.36
2019-05-21T13:05:11.268Z,86690.10
2019-05-21T13:07:36.788Z,86688.80
2019-05-21T13:10:05.618Z,86690.31
2019-05-21T13:12:32.357Z,86689.00
2019-05-21T13:14:59.131Z,86689.64
2019-05-21T13:17:25.920Z,86693.53
2019-05-21T13:19:52.654Z,86693.42
2019-05-21T13:22:19.399Z,86700.83
2019-05-21T13:24:46.319Z,86701.66
2019-05-21T13:27:13.053Z,86700.95
2019-05-21T13:29:39.814Z,86705.15
2019-05-21T13:32:06.586Z,86702.99
2019-05-21T13:34:33.639Z,86699.39
2019-05-21T13:37:00.376Z,86700.55
2019-05-21T13:39:27.219Z,86697.59
2019-05-21T13:41:53.971Z,86702.03
2019-05-21T13:44:20.727Z,86701.17
2019-05-21T13:46:47.565Z,86704.05
2019-05-21T13:49:14.327Z,86700.71
2019-05-21T13:51:41.161Z,86703.55
2019-05-21T13:54:08.114Z,86701.63
2019-05-21T13:56:34.820Z,86702.27
2019-05-21T13:59:01.983Z,86703.42
2019-05-21T14:01:40.164Z,86703.37
2019-05-21T14:03:57.452Z,86704.80
2019-05-21T14:06:24.201Z,86705.34
2019-05-21T14:08:51.293Z,86708.72
2019-05-21T14:11:18.027Z,86701.34
2019-05-21T14:13:44.792Z,86709.39
2019-05-21T14:16:11.816Z,86705.13
2019-05-21T14:18:40.621Z,86703.89
2019-05-21T14:21:07.550Z,86705.03
2019-05-21T14:23:34.372Z,86706.22
2019-05-21T14:26:01.183Z,86697.31
2019-05-21T14:28:28.435Z,86703.08
2019-05-21T14:30:55.362Z,86707.05
2019-05-21T14:33:22.203Z,86700.11
2019-05-21T14:35:50.260Z,86704.42
2019-05-21T14:38:17.302Z,86706.92
2019-05-21T14:40:44.013Z,86709.69
2019-05-21T14:43:10.774Z,86715.31
2019-05-21T14:45:37.643Z,86720.14
2019-05-21T14:48:04.429Z,86714.88
2019-05-21T14:50:31.999Z,86723.08
2019-05-21T14:52:59.073Z,86724.86
2019-05-21T14:55:25.803Z,86724.67
2019-05-21T14:57:52.720Z,86730.27
2019-05-21T15:00:22.065Z,86719.34
2019-05-21T15:02:49.078Z,86729.12
2019-05-21T15:05:16.764Z,86732.98
2019-05-21T15:07:43.694Z,86722.99
2019-05-21T15:10:11.260Z,86730.25
2019-05-21T15:12:37.977Z,86728.55
2019-05-21T15:15:06.020Z,86734.05
2019-05-21T15:17:32.816Z,86730.98
2019-05-21T15:19:59.655Z,86732.25
2019-05-21T15:22:26.840Z,86736.47
2019-05-21T15:24:53.576Z,86740.73
2019-05-21T15:27:20.323Z,86735.24
2019-05-21T15:29:47.137Z,86737.03
2019-05-21T15:32:13.877Z,86744.50
2019-05-21T15:34:40.677Z,86741.05
2019-05-21T15:37:07.604Z,86743.12
2019-05-21T15:39:34.348Z,86744.64
2019-05-21T15:42:01.073Z,86746.48
2019-05-21T15:44:27.881Z,86748.61
2019-05-21T15:46:54.621Z,86749.36
2019-05-21T15:49:35.162Z,86742.80
2019-05-21T15:51:50.089Z,86750.34
2019-05-21T15:54:16.830Z,86747.25
2019-05-21T15:56:43.569Z,86753.94
2019-05-21T15:59:10.639Z,86750.16
2019-05-21T16:01:40.575Z,86752.67
2019-05-21T16:04:06.942Z,86759.40
2019-05-21T16:06:33.841Z,86760.25
2019-05-21T16:09:00.598Z,86758.02
2019-05-21T16:11:29.109Z,86758.25
2019-05-21T16:13:56.083Z,86759.22
2019-05-21T16:16:22.825Z,86764.27
2019-05-21T16:18:49.550Z,86769.91
2019-05-21T16:21:16.897Z,86766.59
2019-05-21T16:23:43.610Z,86767.08
2019-05-21T16:26:10.344Z,86768.48
2019-05-21T16:28:37.348Z,86768.34
2019-05-21T16:31:04.370Z,86760.85
2019-05-21T16:33:38.019Z,86767.44
2019-05-21T16:36:00.302Z,86766.67
2019-05-21T16:38:27.138Z,86763.11
2019-05-21T16:40:53.902Z,86768.83
2019-05-21T16:43:21.094Z,86776.76
2019-05-21T16:45:47.837Z,86766.05
2019-05-21T16:48:14.745Z,86778.39
2019-05-21T16:50:41.780Z,86782.71
2019-05-21T16:53:08.731Z,86793.44
2019-05-21T16:55:35.586Z,86791.48
2019-05-21T16:58:02.386Z,86794.41
2019-05-21T17:00:29.417Z,86810.19
2019-05-21T17:02:56.348Z,86809.78
2019-05-21T17:05:23.345Z,86820.91
2019-05-21T17:07:50.088Z,86829.27
2019-05-21T17:10:18.874Z,86824.66
2019-05-21T17:12:45.734Z,86825.80
2019-05-21T17:15:19.035Z,86819.23
2019-05-21T17:17:45.756Z,86822.46
2019-05-21T17:20:15.266Z,86818.67
2019-05-21T17:22:42.012Z,86814.58
2019-05-21T17:25:09.194Z,86814.61
2019-05-21T17:27:36.188Z,86813.70
2019-05-21T17:30:09.017Z,86813.70
2019-05-21T17:32:36.062Z,86812.82
2019-05-21T17:35:07.051Z,86816.17
2019-05-21T17:37:44.751Z,86817.59
2019-05-21T17:40:13.913Z,86816.81
2019-05-21T17:42:41.247Z,86816.59
2019-05-21T17:45:09.086Z,86817.79
2019-05-21T17:47:37.487Z,86817.07
2019-05-21T17:50:08.121Z,86816.97
2019-05-21T17:52:38.056Z,86824.88
2019-05-21T17:55:05.106Z,86821.00
2019-05-21T17:57:31.871Z,86826.95
2019-05-21T17:59:58.672Z,86827.52
2019-05-21T18:02:25.613Z,86833.40
2019-05-21T18:04:52.362Z,86828.82
2019-05-21T18:07:20.385Z,86831.47
2019-05-21T18:09:47.493Z,86834.41
2019-05-21T18:12:14.678Z,86837.02
2019-05-21T18:14:41.558Z,86837.88
2019-05-21T18:17:08.400Z,86839.91
2019-05-21T18:19:35.944Z,86833.57
2019-05-21T18:22:03.723Z,86839.94
2019-05-21T18:24:30.557Z,86844.20
2019-05-21T18:26:57.683Z,86843.66
2019-05-21T18:29:24.872Z,86846.70
2019-05-21T18:31:51.614Z,86845.66
2019-05-21T18:34:18.653Z,86847.97
2019-05-21T18:36:45.564Z,86861.59
2019-05-21T18:39:12.393Z,86851.70
2019-05-21T18:41:39.242Z,86860.34
2019-05-21T18:44:06.043Z,86866.19
2019-05-21T18:46:32.771Z,86867.20
2019-05-21T18:48:59.485Z,86866.95
2019-05-21T18:51:26.305Z,86866.67
2019-05-21T18:53:53.056Z,86873.77
2019-05-21T18:56:19.781Z,86877.16
2019-05-21T18:58:46.774Z,86870.51
2019-05-21T19:01:13.807Z,86881.13
2019-05-21T19:03:40.848Z,86886.14
2019-05-21T19:06:07.618Z,86890.90
2019-05-21T19:08:34.345Z,86900.11
2019-05-21T19:11:01.078Z,86904.05
2019-05-21T19:13:28.369Z,86906.69
2019-05-21T19:15:55.233Z,86911.28
2019-05-21T19:18:22.078Z,86906.30
2019-05-21T19:20:50.075Z,86916.97
2019-05-21T19:23:17.280Z,86923.98
2019-05-21T19:25:44.022Z,86923.58
2019-05-21T19:28:11.024Z,86924.20
2019-05-21T19:30:38.157Z,86929.31
2019-05-21T19:33:05.702Z,86932.92
2019-05-21T19:35:33.314Z,86939.17
2019-05-21T19:38:00.214Z,86946.73
2019-05-21T19:40:27.051Z,86943.38
2019-05-21T19:42:55.561Z,86955.30
2019-05-21T19:45:22.493Z,86960.98
2019-05-21T19:47:49.410Z,86957.23
2019-05-21T19:50:16.587Z,86964.82
2019-05-21T19:52:43.368Z,86971.45
2019-05-21T19:55:10.504Z,86971.85
2019-05-21T19:57:37.418Z,86980.89
2019-05-21T20:00:06.986Z,86978.26
2019-05-21T20:02:33.969Z,86978.83
2019-05-21T20:05:01.178Z,86982.25
2019-05-21T20:07:28.358Z,86982.81
2019-05-21T20:09:55.519Z,86989.05
2019-05-21T20:12:22.623Z,86998.28
2019-05-21T20:14:49.686Z,86996.59
2019-05-21T20:17:17.451Z,87001.12
2019-05-21T20:19:44.801Z,87012.27
2019-05-21T20:22:11.539Z,87012.09
2019-05-21T20:24:39.273Z,87018.52
2019-05-21T20:27:06.352Z,87021.16
2019-05-21T20:29:53.137Z,87030.41
2019-05-21T20:32:19.909Z,87018.17
2019-05-21T20:34:46.650Z,87027.77
2019-05-21T20:37:13.369Z,87025.91
2019-05-21T20:39:40.553Z,87030.06
2019-05-21T20:42:08.014Z,87034.38
2019-05-21T20:44:34.727Z,87030.25
2019-05-21T20:47:01.663Z,87032.91
2019-05-21T20:49:28.388Z,87042.34
2019-05-21T20:51:55.473Z,87040.84
2019-05-21T20:54:22.850Z,87035.95
2019-05-21T20:56:50.022Z,87036.70
2019-05-21T20:59:16.777Z,87040.85
2019-05-21T21:01:43.848Z,87047.27
2019-05-21T21:04:10.614Z,87045.38
2019-05-21T21:06:38.348Z,87046.90
2019-05-21T21:09:06.728Z,87049.16
2019-05-21T21:11:33.598Z,87046.73
2019-05-21T21:14:15.368Z,87053.50
2019-05-21T21:16:29.264Z,87047.09
2019-05-21T21:18:56.088Z,87045.98
2019-05-21T21:21:23.311Z,87045.41
2019-05-21T21:23:50.513Z,87046.93
2019-05-21T21:26:17.441Z,87052.20
2019-05-21T21:28:44.580Z,87047.86
2019-05-21T21:31:11.706Z,87046.55
2019-05-21T21:33:38.538Z,87051.63
2019-05-21T21:36:05.369Z,87050.31
2019-05-21T21:38:33.269Z,87050.70
2019-05-21T21:41:00.119Z,87057.86
2019-05-21T21:43:27.076Z,87052.95
2019-05-21T21:45:53.988Z,87058.24
2019-05-21T21:48:20.743Z,87056.92
2019-05-21T21:50:48.076Z,87058.42
2019-05-21T21:53:15.026Z,87057.47
2019-05-21T21:55:41.785Z,87066.89
2019-05-21T21:58:08.614Z,87069.72
2019-05-21T22:00:47.479Z,87062.55
2019-05-21T22:03:16.031Z,87070.09
2019-05-21T22:05:42.975Z,87060.49
2019-05-21T22:08:09.856Z,87059.34
2019-05-21T22:10:37.989Z,87058.02
2019-05-21T22:13:05.040Z,87057.38
2019-05-21T22:15:32.031Z,87059.67
2019-05-21T22:17:58.773Z,87061.55
2019-05-21T22:20:25.507Z,87049.15
2019-05-21T22:22:52.461Z,87051.58
2019-05-21T22:25:19.184Z,87053.72
2019-05-21T22:27:45.923Z,87051.45
2019-05-21T22:30:13.065Z,87052.02
2019-05-21T22:32:39.777Z,87051.63
2019-05-21T22:35:06.632Z,87049.94
2019-05-21T22:37:33.444Z,87048.81
2019-05-21T22:40:00.375Z,87047.69
2019-05-21T22:42:27.509Z,87048.44
2019-05-21T22:45:07.576Z,87044.67
2019-05-21T22:47:23.253Z,87047.88
2019-05-21T22:49:50.005Z,87047.88
2019-05-21T22:52:16.810Z,87041.66
2019-05-21T22:54:43.690Z,87042.23
2019-05-21T22:57:10.422Z,87040.91
2019-05-21T22:59:37.421Z,87045.45
2019-05-21T23:02:04.252Z,87043.37
2019-05-21T23:04:30.970Z,87045.07
2019-05-21T23:06:57.857Z,87044.48
2019-05-21T23:09:24.704Z,87048.64
2019-05-21T23:11:51.644Z,87050.69
2019-05-21T23:14:18.468Z,87051.23
2019-05-21T23:16:45.132Z,87054.41
2019-05-21T23:22:41.591Z,87049.68
2019-05-21T23:25:09.756Z,87051.69
2019-05-21T23:27:36.530Z,87057.13
2019-05-21T23:30:06.457Z,87056.20
2019-05-21T23:32:33.228Z,87059.39
2019-05-21T23:35:00.203Z,87055.44
2019-05-21T23:37:27.014Z,87061.44
2019-05-21T23:39:53.825Z,87056.73
2019-05-21T23:42:29.100Z,87047.50
2019-05-21T23:44:49.847Z,87050.86
2019-05-21T23:47:16.489Z,87053.49
2019-05-21T23:49:43.266Z,87054.60
2019-05-21T23:52:10.089Z,87051.39
2019-05-21T23:54:37.092Z,87053.81
2019-05-21T23:57:05.595Z,87050.59
2019-05-21T23:59:32.323Z,87046.86
